createdAt,value
2019-04-30T00:01:40.179Z,73.17
2019-04-30T00:04:15.642Z,73.49
2019-04-30T00:06:42.393Z,73.82
2019-04-30T00:09:15.113Z,73.80
2019-04-30T00:11:40.148Z,74.90
2019-04-30T00:14:09.064Z,74.35
2019-04-30T00:16:39.892Z,74.25
2019-04-30T00:19:10.639Z,74.58
2019-04-30T00:21:36.552Z,75.58
2019-04-30T00:24:10.021Z,74.99
2019-04-30T00:26:35.406Z,74.64
2019-04-30T00:29:05.015Z,74.67
2019-04-30T00:31:34.835Z,74.72
2019-04-30T00:34:01.827Z,75.27
2019-04-30T00:36:34.142Z,75.24
2019-04-30T00:39:00.121Z,75.72
2019-04-30T00:41:30.279Z,75.38
2019-04-30T00:43:58.373Z,75.65
2019-04-30T00:46:29.326Z,75.57
2019-04-30T00:49:08.545Z,75.87
2019-04-30T00:51:26.233Z,76.82
2019-04-30T00:53:55.647Z,76.14
2019-04-30T00:56:24.611Z,76.26
2019-04-30T00:58:51.490Z,76.05
2019-04-30T01:01:28.602Z,76.27
2019-04-30T01:04:01.951Z,75.93
2019-04-30T01:06:30.781Z,75.61
2019-04-30T01:09:05.411Z,75.69
2019-04-30T01:11:29.504Z,75.44
2019-04-30T01:13:59.110Z,75.89
2019-04-30T01:16:30.172Z,75.84
2019-04-30T01:18:58.634Z,76.07
2019-04-30T01:21:25.902Z,76.46
2019-04-30T01:23:54.902Z,76.18
2019-04-30T01:26:27.701Z,76.17
2019-04-30T01:28:53.723Z,76.05
2019-04-30T01:31:21.607Z,76.16
2019-04-30T01:33:50.458Z,76.09
2019-04-30T01:36:19.367Z,76.18
2019-04-30T01:38:49.070Z,76.06
2019-04-30T01:41:22.041Z,76.16
2019-04-30T01:43:48.910Z,75.73
2019-04-30T01:46:18.974Z,76.29
2019-04-30T01:48:51.865Z,76.28
2019-04-30T01:51:21.541Z,76.23
2019-04-30T01:53:48.491Z,76.18
2019-04-30T01:57:24.622Z,76.24
2019-04-30T02:00:00.667Z,76.98
2019-04-30T02:02:28.665Z,77.20
2019-04-30T02:04:59.050Z,77.31
2019-04-30T02:07:28.772Z,77.50
2019-04-30T02:09:55.966Z,77.65
2019-04-30T02:12:25.963Z,77.95
2019-04-30T02:14:55.406Z,77.76
2019-04-30T02:17:24.453Z,78.18
2019-04-30T02:19:56.688Z,78.38
2019-04-30T02:22:22.123Z,78.23
2019-04-30T02:24:50.920Z,78.72
2019-04-30T02:27:21.637Z,79.13
2019-04-30T02:29:49.509Z,79.58
2019-04-30T02:32:20.542Z,78.71
2019-04-30T02:34:50.712Z,78.91
2019-04-30T02:37:22.456Z,78.50
2019-04-30T02:39:51.306Z,78.62
2019-04-30T02:42:20.423Z,79.01
2019-04-30T02:44:50.442Z,78.74
2019-04-30T02:47:20.304Z,78.70
2019-04-30T02:49:52.936Z,78.96
2019-04-30T02:52:19.417Z,79.13
2019-04-30T02:54:45.772Z,79.19
2019-04-30T02:57:14.712Z,79.15
2019-04-30T02:59:49.723Z,79.27
2019-04-30T03:02:19.555Z,79.30
2019-04-30T03:04:46.664Z,79.73
2019-04-30T03:07:15.483Z,79.51
2019-04-30T03:09:44.322Z,79.25
2019-04-30T03:12:13.168Z,79.14
2019-04-30T03:14:42.409Z,79.16
2019-04-30T03:17:22.425Z,78.54
2019-04-30T03:20:00.270Z,78.55
2019-04-30T03:22:30.154Z,78.21
2019-04-30T03:24:59.802Z,78.15
2019-04-30T03:27:30.145Z,77.98
2019-04-30T03:30:00.099Z,77.79
2019-04-30T03:32:35.731Z,77.78
2019-04-30T03:34:55.915Z,77.81
2019-04-30T03:37:24.752Z,77.56
2019-04-30T03:39:53.819Z,77.74
2019-04-30T03:42:24.416Z,78.54
2019-04-30T03:44:53.916Z,77.78
2019-04-30T03:47:22.751Z,77.88
2019-04-30T03:49:52.140Z,78.00
2019-04-30T03:52:21.061Z,78.03
2019-04-30T03:54:50.493Z,78.34
2019-04-30T03:57:20.367Z,78.98
2019-04-30T03:59:49.939Z,78.54
2019-04-30T04:02:21.215Z,78.41
2019-04-30T04:04:53.967Z,77.96
2019-04-30T04:07:31.019Z,79.33
2019-04-30T04:10:06.027Z,78.16
2019-04-30T04:12:35.532Z,78.19
2019-04-30T04:15:04.561Z,77.81
2019-04-30T04:17:33.702Z,77.60
2019-04-30T04:20:03.372Z,78.00
2019-04-30T04:22:32.929Z,77.51
2019-04-30T04:25:01.816Z,77.76
2019-04-30T04:27:31.681Z,77.32
2019-04-30T04:30:01.300Z,77.33
2019-04-30T04:32:30.781Z,77.74
2019-04-30T04:35:00.179Z,77.28
2019-04-30T04:37:30.291Z,77.63
2019-04-30T04:39:59.603Z,77.47
2019-04-30T04:42:32.403Z,77.16
2019-04-30T04:44:55.736Z,77.08
2019-04-30T04:47:24.554Z,76.93
2019-04-30T04:49:53.903Z,76.71
2019-04-30T04:52:22.434Z,77.00
2019-04-30T04:54:51.195Z,77.50
2019-04-30T04:57:22.579Z,77.79
2019-04-30T04:59:50.225Z,77.57
2019-04-30T05:02:24.154Z,77.52
2019-04-30T05:04:52.956Z,76.66
2019-04-30T05:07:22.467Z,76.51
2019-04-30T05:09:51.359Z,76.44
2019-04-30T05:12:20.379Z,76.49
2019-04-30T05:14:49.830Z,75.95
2019-04-30T05:17:19.519Z,76.05
2019-04-30T05:19:48.732Z,76.04
2019-04-30T05:22:19.060Z,75.62
2019-04-30T05:24:46.398Z,75.94
2019-04-30T05:27:15.224Z,75.79
2019-04-30T05:29:45.100Z,75.52
2019-04-30T05:32:13.902Z,75.70
2019-04-30T05:34:42.766Z,75.28
2019-04-30T05:37:12.574Z,75.84
2019-04-30T05:39:41.440Z,75.24
2019-04-30T05:42:10.279Z,75.50
2019-04-30T05:44:39.567Z,75.05
2019-04-30T05:47:09.310Z,74.89
2019-04-30T05:49:38.798Z,74.74
2019-04-30T05:52:06.844Z,74.55
2019-04-30T05:54:35.688Z,74.54
2019-04-30T05:57:04.499Z,74.10
2019-04-30T05:59:33.436Z,73.80
2019-04-30T06:02:02.254Z,73.53
2019-04-30T06:04:31.078Z,73.22
2019-04-30T06:06:59.900Z,73.46
2019-04-30T06:09:35.803Z,73.78
2019-04-30T06:13:13.580Z,73.09
2019-04-30T06:15:49.003Z,73.21
2019-04-30T06:18:18.599Z,73.05
2019-04-30T06:20:45.538Z,72.73
2019-04-30T06:23:14.454Z,72.87
2019-04-30T06:25:56.278Z,72.37
2019-04-30T06:28:12.415Z,72.57
2019-04-30T06:30:41.285Z,73.23
2019-04-30T06:33:11.779Z,72.48
2019-04-30T06:35:39.525Z,72.22
2019-04-30T06:38:08.654Z,71.97
2019-04-30T06:40:38.994Z,72.26
2019-04-30T06:43:05.950Z,72.19
2019-04-30T06:45:35.318Z,72.31
2019-04-30T06:48:04.788Z,72.04
2019-04-30T06:50:34.276Z,72.09
2019-04-30T06:53:03.104Z,72.24
2019-04-30T06:55:32.559Z,72.01
2019-04-30T06:58:11.826Z,71.85
2019-04-30T07:00:35.674Z,71.85
2019-04-30T07:03:04.371Z,71.39
2019-04-30T07:05:33.236Z,71.69
2019-04-30T07:08:11.416Z,71.72
2019-04-30T07:10:37.284Z,71.78
2019-04-30T07:13:13.447Z,72.08
2019-04-30T07:15:42.277Z,71.67
2019-04-30T07:18:11.134Z,71.65
2019-04-30T07:20:39.920Z,71.46
2019-04-30T07:23:09.383Z,71.52
2019-04-30T07:25:39.105Z,71.26
2019-04-30T07:28:08.805Z,71.38
2019-04-30T07:30:36.850Z,70.96
2019-04-30T07:33:05.742Z,71.45
2019-04-30T07:35:34.533Z,71.49
2019-04-30T07:38:04.989Z,71.28
2019-04-30T07:40:33.113Z,71.27
2019-04-30T07:43:02.016Z,71.12
2019-04-30T07:45:32.178Z,70.83
2019-04-30T07:48:00.451Z,70.69
2019-04-30T07:50:31.354Z,70.44
2019-04-30T07:53:05.485Z,70.43
2019-04-30T07:55:29.543Z,70.57
2019-04-30T07:57:56.687Z,70.76
2019-04-30T08:00:26.107Z,71.22
2019-04-30T08:03:03.326Z,70.92
2019-04-30T08:05:35.918Z,70.98
2019-04-30T08:08:20.641Z,71.18
2019-04-30T08:10:33.559Z,70.64
2019-04-30T08:13:10.281Z,70.82
2019-04-30T08:15:31.275Z,70.86
2019-04-30T08:18:04.446Z,71.07
2019-04-30T08:20:29.549Z,70.76
2019-04-30T08:23:07.048Z,71.00
2019-04-30T08:25:28.846Z,70.92
2019-04-30T08:27:55.509Z,70.53
2019-04-30T08:30:27.035Z,70.68
2019-04-30T08:32:53.229Z,70.64
2019-04-30T08:35:22.181Z,71.00
2019-04-30T08:37:52.302Z,70.90
2019-04-30T08:40:21.188Z,71.79
2019-04-30T08:42:50.077Z,71.96
2019-04-30T08:45:19.695Z,72.17
2019-04-30T08:47:49.324Z,71.43
2019-04-30T08:50:16.700Z,71.65
2019-04-30T08:52:46.114Z,71.49
2019-04-30T08:55:17.077Z,71.60
2019-04-30T08:57:43.815Z,71.80
2019-04-30T09:00:14.905Z,71.97
2019-04-30T09:02:43.214Z,71.85
2019-04-30T09:05:18.537Z,71.17
2019-04-30T09:07:46.004Z,70.77
2019-04-30T09:10:15.595Z,70.77
2019-04-30T09:12:44.419Z,70.46
2019-04-30T09:15:13.963Z,70.32
2019-04-30T09:17:42.792Z,70.45
2019-04-30T09:20:11.670Z,70.45
2019-04-30T09:22:41.785Z,69.81
2019-04-30T09:25:10.899Z,70.33
2019-04-30T09:27:39.973Z,69.72
2019-04-30T09:30:10.332Z,69.58
2019-04-30T09:32:38.988Z,69.71
2019-04-30T09:35:06.259Z,69.52
2019-04-30T09:37:36.194Z,70.43
2019-04-30T09:40:15.310Z,70.63
2019-04-30T09:42:36.123Z,70.67
2019-04-30T09:45:05.431Z,70.56
2019-04-30T09:47:35.361Z,70.49
2019-04-30T09:50:04.211Z,70.14
2019-04-30T09:52:35.521Z,69.65
2019-04-30T09:55:02.271Z,69.44
2019-04-30T09:57:30.717Z,69.77
2019-04-30T10:00:00.642Z,69.85
2019-04-30T10:02:29.188Z,70.07
2019-04-30T10:04:58.384Z,70.51
2019-04-30T10:07:29.283Z,70.60
2019-04-30T10:09:59.644Z,70.63
2019-04-30T10:12:29.543Z,70.43
2019-04-30T10:14:59.250Z,70.38
2019-04-30T10:17:32.878Z,69.94
2019-04-30T10:20:01.996Z,69.88
2019-04-30T10:22:32.110Z,69.71
2019-04-30T10:25:01.903Z,69.14
2019-04-30T10:27:30.792Z,69.52
2019-04-30T10:30:00.487Z,69.30
2019-04-30T10:32:30.045Z,68.95
2019-04-30T10:34:58.766Z,69.24
2019-04-30T10:37:28.767Z,69.00
2019-04-30T10:39:56.620Z,69.05
2019-04-30T10:42:28.738Z,69.03
2019-04-30T10:44:55.575Z,68.46
2019-04-30T10:47:25.475Z,69.02
2019-04-30T10:49:55.627Z,68.73
2019-04-30T10:52:24.424Z,68.57
2019-04-30T10:54:53.267Z,68.33
2019-04-30T10:57:22.639Z,68.92
2019-04-30T10:59:51.584Z,68.14
2019-04-30T11:02:20.352Z,67.84
2019-04-30T11:04:49.252Z,67.05
2019-04-30T11:07:18.640Z,66.22
2019-04-30T11:09:50.599Z,66.13
2019-04-30T11:12:19.539Z,66.42
2019-04-30T11:14:48.412Z,66.46
2019-04-30T11:17:19.530Z,66.18
2019-04-30T11:19:46.675Z,65.97
2019-04-30T11:22:15.476Z,66.66
2019-04-30T11:24:58.240Z,66.97
2019-04-30T11:27:13.518Z,66.10
2019-04-30T11:29:42.618Z,66.66
2019-04-30T11:32:17.120Z,66.84
2019-04-30T11:34:45.935Z,66.39
2019-04-30T11:37:14.808Z,66.11
2019-04-30T11:39:43.776Z,65.51
2019-04-30T11:42:13.287Z,65.32
2019-04-30T11:44:42.114Z,65.54
2019-04-30T11:47:22.079Z,65.02
2019-04-30T11:49:51.301Z,65.31
2019-04-30T11:52:20.463Z,65.43
2019-04-30T11:54:54.164Z,66.34
2019-04-30T11:57:18.862Z,66.04
2019-04-30T11:59:47.880Z,65.93
2019-04-30T12:02:21.182Z,65.91
2019-04-30T12:04:51.219Z,65.53
2019-04-30T12:07:41.363Z,65.23
2019-04-30T12:10:19.553Z,65.46
2019-04-30T12:12:54.934Z,64.91
2019-04-30T12:15:24.274Z,64.18
2019-04-30T12:17:53.072Z,63.35
2019-04-30T12:20:23.134Z,63.08
2019-04-30T12:22:52.568Z,63.36
2019-04-30T12:25:21.892Z,63.23
2019-04-30T12:27:51.058Z,62.82
2019-04-30T12:30:20.754Z,62.94
2019-04-30T12:32:55.580Z,62.55
2019-04-30T12:35:29.061Z,61.48
2019-04-30T12:37:59.268Z,61.33
2019-04-30T12:40:31.733Z,60.69
2019-04-30T12:42:59.885Z,59.32
2019-04-30T12:45:29.416Z,59.57
2019-04-30T12:47:59.551Z,58.59
2019-04-30T12:50:32.576Z,58.47
2019-04-30T12:53:04.996Z,57.79
2019-04-30T12:55:39.191Z,57.41
2019-04-30T12:58:07.030Z,57.41
2019-04-30T13:00:41.091Z,56.91
2019-04-30T13:03:17.618Z,57.10
2019-04-30T13:05:48.167Z,57.22
2019-04-30T13:08:17.424Z,57.50
2019-04-30T13:10:46.237Z,56.84
2019-04-30T13:13:14.915Z,57.51
2019-04-30T13:15:43.545Z,56.73
2019-04-30T13:18:12.378Z,57.23
2019-04-30T13:20:42.225Z,56.37
2019-04-30T13:23:11.041Z,56.66
2019-04-30T13:25:50.720Z,56.11
2019-04-30T13:28:12.804Z,55.83
2019-04-30T13:30:52.678Z,55.92
2019-04-30T13:33:38.925Z,55.03
2019-04-30T13:36:08.777Z,55.57
2019-04-30T13:38:49.131Z,55.06
2019-04-30T13:41:15.022Z,55.45
2019-04-30T13:43:51.656Z,54.07
2019-04-30T13:46:20.511Z,55.37
2019-04-30T13:48:49.306Z,55.70
2019-04-30T13:51:18.894Z,54.62
2019-04-30T13:53:50.128Z,54.86
2019-04-30T13:56:20.296Z,54.45
2019-04-30T13:58:48.012Z,55.20
2019-04-30T14:01:18.871Z,55.16
2019-04-30T14:03:52.504Z,55.57
2019-04-30T14:06:23.434Z,54.90
2019-04-30T14:09:07.662Z,55.53
2019-04-30T14:12:06.187Z,54.63
2019-04-30T14:14:35.031Z,55.54
2019-04-30T14:17:03.837Z,56.01
2019-04-30T14:19:32.648Z,56.05
2019-04-30T14:22:02.087Z,54.91
2019-04-30T14:24:30.895Z,54.66
2019-04-30T14:26:59.779Z,55.67
2019-04-30T14:29:30.175Z,55.15
2019-04-30T14:31:58.875Z,54.74
2019-04-30T14:34:28.599Z,53.49
2019-04-30T14:36:59.363Z,54.81
2019-04-30T14:39:29.149Z,54.99
2019-04-30T14:41:59.997Z,54.85
2019-04-30T14:44:31.182Z,55.17
2019-04-30T14:47:17.358Z,55.52
2019-04-30T14:50:01.999Z,55.25
2019-04-30T14:52:24.414Z,56.22
2019-04-30T14:54:58.843Z,55.42
2019-04-30T14:57:33.451Z,54.46
2019-04-30T15:00:08.737Z,55.17
2019-04-30T15:02:40.790Z,54.83
2019-04-30T15:05:09.625Z,53.98
2019-04-30T15:07:39.690Z,53.83
2019-04-30T15:10:07.924Z,55.64
2019-04-30T15:12:38.194Z,55.68
2019-04-30T15:15:09.165Z,56.46
2019-04-30T15:17:40.922Z,55.22
2019-04-30T15:20:08.669Z,55.10
2019-04-30T15:22:36.638Z,55.75
2019-04-30T15:25:06.907Z,55.83
2019-04-30T15:27:45.303Z,55.39
2019-04-30T15:30:07.996Z,55.48
2019-04-30T15:32:39.569Z,54.57
2019-04-30T15:35:08.866Z,55.30
2019-04-30T15:37:38.595Z,56.22
2019-04-30T15:40:09.098Z,56.45
2019-04-30T15:42:39.012Z,56.05
2019-04-30T15:45:09.286Z,55.75
2019-04-30T15:47:38.700Z,56.66
2019-04-30T15:50:09.777Z,56.20
2019-04-30T15:52:38.664Z,56.85
2019-04-30T15:55:05.807Z,56.08
2019-04-30T15:57:51.415Z,56.97
2019-04-30T16:00:21.210Z,56.96
2019-04-30T16:02:57.324Z,56.96
2019-04-30T16:05:27.645Z,56.21
2019-04-30T16:08:01.627Z,56.48
2019-04-30T16:10:34.737Z,56.87
2019-04-30T16:13:09.690Z,55.55
2019-04-30T16:15:38.564Z,56.01
2019-04-30T16:18:09.630Z,56.35
2019-04-30T16:20:36.599Z,55.45
2019-04-30T16:23:09.059Z,54.84
2019-04-30T16:25:36.640Z,55.84
2019-04-30T16:28:05.664Z,56.27
2019-04-30T16:30:34.459Z,55.91
2019-04-30T16:33:03.945Z,55.96
2019-04-30T16:35:32.831Z,55.81
2019-04-30T16:38:01.642Z,56.05
2019-04-30T16:40:34.769Z,56.05
2019-04-30T16:43:05.795Z,56.11
2019-04-30T16:45:35.483Z,56.60
2019-04-30T16:48:04.288Z,55.96
2019-04-30T16:50:33.135Z,56.08
2019-04-30T16:56:08.484Z,56.92
2019-04-30T16:58:40.737Z,57.24
2019-04-30T17:01:09.607Z,57.31
2019-04-30T17:03:40.431Z,57.98
2019-04-30T17:06:13.378Z,58.41
2019-04-30T17:08:45.953Z,58.59
2019-04-30T17:11:19.942Z,58.10
2019-04-30T17:13:54.148Z,58.18
2019-04-30T17:16:24.400Z,58.10
2019-04-30T17:18:53.272Z,58.31
2019-04-30T17:21:22.534Z,58.57
2019-04-30T17:23:52.495Z,58.59
2019-04-30T17:26:22.351Z,59.00
2019-04-30T17:28:51.130Z,58.81
2019-04-30T17:31:19.972Z,59.04
2019-04-30T17:33:49.418Z,58.96
2019-04-30T17:36:18.797Z,59.43
2019-04-30T17:38:47.404Z,59.65
2019-04-30T17:41:17.827Z,59.89
2019-04-30T17:43:49.794Z,60.13
2019-04-30T17:46:20.191Z,60.12
2019-04-30T17:48:49.428Z,60.21
2019-04-30T17:51:16.273Z,60.30
2019-04-30T17:53:50.497Z,61.18
2019-04-30T17:56:20.400Z,60.72
2019-04-30T17:58:49.274Z,60.83
2019-04-30T18:01:18.709Z,61.12
2019-04-30T18:03:48.805Z,61.23
2019-04-30T18:06:16.443Z,61.56
2019-04-30T18:08:45.246Z,61.36
2019-04-30T18:11:14.150Z,61.88
2019-04-30T18:13:43.586Z,61.99
2019-04-30T18:16:12.473Z,62.35
2019-04-30T18:18:45.533Z,62.37
2019-04-30T18:21:25.817Z,62.82
2019-04-30T18:24:01.907Z,63.30
2019-04-30T18:26:30.733Z,63.37
2019-04-30T18:29:00.718Z,63.39
2019-04-30T18:31:29.922Z,63.66
2019-04-30T18:33:59.311Z,63.92
2019-04-30T18:36:29.403Z,64.40
2019-04-30T18:38:58.936Z,64.40
2019-04-30T18:41:25.862Z,64.78
2019-04-30T18:43:54.697Z,64.71
2019-04-30T18:46:23.555Z,65.36
2019-04-30T18:48:52.832Z,65.26
2019-04-30T18:51:33.739Z,65.37
2019-04-30T18:53:50.255Z,65.79
2019-04-30T18:56:19.223Z,65.52
2019-04-30T18:58:48.639Z,66.10
2019-04-30T19:01:16.912Z,66.38
2019-04-30T19:03:45.737Z,66.49
2019-04-30T19:06:23.737Z,66.80
2019-04-30T19:08:50.460Z,66.59
2019-04-30T19:11:26.395Z,67.26
2019-04-30T19:14:02.423Z,67.41
2019-04-30T19:16:44.324Z,67.21
2019-04-30T19:19:17.323Z,67.82
2019-04-30T19:21:46.446Z,67.88
2019-04-30T19:24:15.364Z,68.16
2019-04-30T19:26:44.180Z,68.03
2019-04-30T19:29:12.976Z,68.07
2019-04-30T19:31:41.781Z,68.54
2019-04-30T19:34:10.592Z,69.09
2019-04-30T19:36:40.736Z,69.03
2019-04-30T19:39:08.736Z,69.54
2019-04-30T19:41:38.655Z,69.87
2019-04-30T19:44:06.380Z,70.79
2019-04-30T19:46:35.201Z,70.25
2019-04-30T19:49:04.055Z,70.05
2019-04-30T19:51:32.892Z,70.40
2019-04-30T19:54:02.062Z,70.88
2019-04-30T19:56:32.864Z,71.00
2019-04-30T19:59:04.797Z,70.87
2019-04-30T20:01:28.813Z,71.27
2019-04-30T20:03:58.762Z,71.86
2019-04-30T20:06:28.608Z,72.11
2019-04-30T20:08:55.436Z,71.88
2019-04-30T20:11:24.304Z,72.47
2019-04-30T20:13:53.143Z,73.05
2019-04-30T20:16:21.971Z,72.76
2019-04-30T20:18:50.848Z,72.97
2019-04-30T20:21:28.389Z,73.31
2019-04-30T20:23:48.447Z,73.73
2019-04-30T20:26:17.278Z,73.93
2019-04-30T20:28:46.265Z,73.76
2019-04-30T20:31:15.145Z,74.12
2019-04-30T20:33:44.752Z,73.97
2019-04-30T20:36:14.207Z,73.99
2019-04-30T20:38:47.199Z,74.20
2019-04-30T20:41:15.999Z,74.33
2019-04-30T20:43:44.911Z,74.62
2019-04-30T20:46:13.740Z,75.34
2019-04-30T20:48:42.595Z,74.96
2019-04-30T20:51:11.399Z,75.21
2019-04-30T20:53:41.013Z,75.57
2019-04-30T20:56:09.273Z,76.04
2019-04-30T20:58:40.482Z,76.00
2019-04-30T21:01:06.984Z,76.04
2019-04-30T21:03:35.567Z,76.49
2019-04-30T21:06:04.375Z,76.49
2019-04-30T21:08:33.167Z,76.40
2019-04-30T21:11:01.980Z,76.32
2019-04-30T21:13:30.768Z,76.41
2019-04-30T21:15:59.669Z,77.10
2019-04-30T21:18:32.106Z,76.99
2019-04-30T21:20:59.504Z,77.19
2019-04-30T21:23:26.283Z,77.57
2019-04-30T21:25:55.182Z,78.11
2019-04-30T21:28:23.957Z,78.31
2019-04-30T21:30:52.844Z,78.34
2019-04-30T21:33:25.609Z,78.31
2019-04-30T21:35:59.927Z,78.50
2019-04-30T21:38:29.343Z,78.79
2019-04-30T21:41:01.262Z,78.58
2019-04-30T21:43:29.274Z,78.94
2019-04-30T21:45:59.410Z,79.53
2019-04-30T21:48:28.778Z,79.30
2019-04-30T21:50:55.840Z,79.49
2019-04-30T21:53:25.632Z,79.67
2019-04-30T21:55:54.531Z,79.99
2019-04-30T21:58:23.359Z,79.86
2019-04-30T22:00:58.043Z,80.59
2019-04-30T22:03:26.844Z,80.00
2019-04-30T22:05:57.632Z,80.40
2019-04-30T22:08:26.494Z,80.39
2019-04-30T22:10:55.288Z,80.96
2019-04-30T22:13:24.074Z,80.78
2019-04-30T22:15:52.878Z,81.37
2019-04-30T22:18:21.731Z,81.15
2019-04-30T22:20:50.585Z,81.01
2019-04-30T22:23:19.458Z,81.33
2019-04-30T22:25:49.095Z,82.08
2019-04-30T22:28:17.101Z,81.62
2019-04-30T22:30:46.024Z,81.50
2019-04-30T22:33:14.827Z,81.41
2019-04-30T22:35:51.147Z,81.17
2019-04-30T22:38:22.053Z,81.64
2019-04-30T22:40:50.893Z,81.35
2019-04-30T22:43:19.641Z,81.54
2019-04-30T22:45:52.052Z,81.58
2019-04-30T22:48:20.869Z,81.44
2019-04-30T22:50:49.777Z,81.19
2019-04-30T22:53:18.623Z,81.09
2019-04-30T22:55:47.562Z,81.28
2019-04-30T22:58:16.343Z,81.38
2019-04-30T23:00:45.274Z,81.87
2019-04-30T23:03:18.964Z,81.93
2019-04-30T23:05:47.754Z,81.71
2019-04-30T23:08:16.556Z,82.18
2019-04-30T23:10:45.414Z,81.60
2019-04-30T23:13:14.286Z,82.50
2019-04-30T23:15:43.085Z,81.84
2019-04-30T23:18:11.890Z,81.65
2019-04-30T23:20:40.720Z,81.51
2019-04-30T23:23:09.550Z,81.30
2019-04-30T23:25:38.335Z,80.99
2019-04-30T23:28:07.134Z,81.28
2019-04-30T23:30:35.936Z,81.78
2019-04-30T23:33:04.740Z,81.65
2019-04-30T23:35:33.517Z,82.10
2019-04-30T23:38:02.317Z,82.34
2019-04-30T23:40:36.106Z,83.22
2019-04-30T23:43:04.896Z,82.76
2019-04-30T23:45:33.763Z,82.83
2019-04-30T23:48:02.618Z,82.82
2019-04-30T23:50:31.409Z,83.28
2019-04-30T23:53:00.220Z,83.02
2019-04-30T23:55:29.052Z,82.66
2019-04-30T23:57:58.564Z,83.20
